Time;durP1;ratioP1;P1;durP2;ratioP2;P2;SDS_P1;SDS_P2;PMS_P1;PMS_P2;Temp;Humidity;BMP_temperature;BMP_pressure;BME280_temperature;BME280_humidity;BME280_pressure;Samples;Min_cycle;Max_cycle;Signal;HPM_P1;HPM_P2
2022/01/27 00:05:16;;;;;;;;;;;;;;;-144.99;100.00;52656.00;5050255;28;19931;-65
2022/01/27 00:07:43;;;;;;;;;;;;;;;-144.99;100.00;52647.84;5054864;28;19949;-65
2022/01/27 00:10:18;;;;;;;;;;;;;;;-144.99;100.00;52660.09;5057498;28;19929;-66
2022/01/27 00:12:44;;;;;;;;;;;;;;;-144.99;100.00;52682.50;5062790;28;19925;-65
2022/01/27 00:15:13;;;;;;;;;;;;;;;-144.99;100.00;52692.69;5070884;28;19933;-68
2022/01/27 00:17:44;;;;;;;;;;;;;;;-144.99;100.00;52664.16;5051072;28;19998;-65
2022/01/27 00:20:13;;;;;;;;;;;;;;;-144.99;100.00;52670.28;5038256;28;19924;-65
2022/01/27 00:22:39;;;;;;;;;;;;;;;-144.99;100.00;52631.53;5043949;28;20409;-65
2022/01/27 00:25:07;;;;;;;;;;;;;;;-144.99;100.00;52639.69;5034340;28;20286;-68
2022/01/27 00:27:33;;;;;;;;;;;;;;;-144.99;100.00;52688.63;5034815;28;19955;-68
2022/01/27 00:30:03;;;;;;;;;;;;;;;-144.99;100.00;52676.38;5034985;28;19929;-68
2022/01/27 00:32:29;;;;;;;;;;;;;;;-144.99;100.00;52684.53;5035099;28;19975;-68
2022/01/27 00:34:56;;;;;;;;;;;;;;;-144.99;100.00;52676.38;5034977;28;19929;-68
2022/01/27 00:37:23;;;;;;;;;;;;;;;-144.99;100.00;52651.94;5023840;28;19932;-68
2022/01/27 00:39:50;;;;;;;;;;;;;;;-144.99;100.00;52619.31;5049134;28;20302;-68
2022/01/27 00:42:16;;;;;;;;;;;;;;;-144.99;100.00;52651.94;5041475;28;19925;-68
2022/01/27 00:44:43;;;;;;;;;;;;;;;-144.99;100.00;52668.22;5034400;28;19936;-68
2022/01/27 00:47:09;;;;;;;;;;;;;;;-144.99;100.00;52715.13;5034797;28;19976;-68
2022/01/27 00:49:37;;;;;;;;;;;;;;;-144.99;100.00;52660.09;5034456;28;20306;-68
2022/01/27 00:52:07;;;;;;;;;;;;;;;-144.99;100.00;52611.16;5048311;28;20401;-68
2022/01/27 00:54:34;;;;;;;;;;;;;;;-144.99;100.00;52700.84;5054926;28;19932;-69
2022/01/27 00:57:08;;;;;;;;;;;;;;;-144.99;100.00;52647.84;5054643;28;20159;-69
2022/01/27 00:59:41;;;;;;;;;;;;;;;-144.99;100.00;52668.22;5055097;28;20366;-69
2022/01/27 01:02:16;;;;;;;;;;;;;;;-144.99;100.00;52656.00;5054243;28;20301;-69
2022/01/27 01:04:46;;;;;;;;;;;;;;;-144.99;100.00;52664.16;5053974;28;20374;-68
2022/01/27 01:07:14;;;;;;;;;;;;;;;-144.99;100.00;52631.53;5050287;28;19925;-69
2022/01/27 01:15:16;;;;;;;;;;;;;;;-144.99;100.00;52631.53;5029898;28;20052;-68
2022/01/27 01:17:53;;;;;;;;;;;;;;;-144.99;100.00;52627.47;5044273;28;20469;-68
2022/01/27 01:20:40;;;;;;;;;;;;;;;-144.99;100.00;52698.81;5038097;28;19929;-68
2022/01/27 01:31:43;;;;;;;;;;;;;;;-144.99;100.00;52688.63;5041346;28;20063;-71
2022/01/27 01:34:15;;;;;;;;;;;;;;;-144.99;100.00;52684.53;5053770;28;19925;-66
2022/01/27 01:36:53;;;;;;;;;;;;;;;-144.99;100.00;52639.69;5053155;28;19913;-68
2022/01/27 01:39:20;;;;;;;;;;;;;;;-144.99;100.00;52633.59;5053674;28;20463;-65
2022/01/27 01:41:48;;;;;;;;;;;;;;;-144.99;100.00;52668.22;5052799;28;19934;-70
2022/01/27 01:44:14;;;;;;;;;;;;;;;-144.99;100.00;52668.22;5050755;28;19926;-69
2022/01/27 01:46:41;;;;;;;;;;;;;;;-144.99;100.00;52660.09;5050924;28;20007;-69
2022/01/27 01:49:07;;;;;;;;;;;;;;;-144.99;100.00;52637.66;5064610;28;20020;-73
2022/01/27 01:51:35;;;;;;;;;;;;;;;-144.99;100.00;52647.84;5065009;28;19988;-69
2022/01/27 01:54:01;;;;;;;;;;;;;;;-144.99;100.00;52684.53;5058602;28;19931;-66
2022/01/27 01:56:28;;;;;;;;;;;;;;;-144.99;100.00;52631.53;5053420;28;19924;-66
2022/01/27 01:58:55;;;;;;;;;;;;;;;-144.99;100.00;52688.63;5053702;28;19940;-65
2022/01/27 02:01:22;;;;;;;;;;;;;;;-144.99;100.00;52717.16;5041610;28;20390;-66
2022/01/27 02:03:49;;;;;;;;;;;;;;;-144.99;100.00;52647.84;5032405;28;20015;-65
2022/01/27 02:06:21;;;;;;;;;;;;;;;-144.99;100.00;52668.22;5039672;22;19939;-60
2022/01/27 02:09:03;;;;;;;;;;;;;;;-144.99;100.00;52660.09;5011737;28;20016;-59
2022/01/27 02:19:43;;;;;;;;;;;;;;;-144.99;100.00;52668.22;4991377;28;19936;-58
2022/01/27 02:22:11;;;;;;;;;;;;;;;-144.99;100.00;52635.63;4997166;28;19933;-58
2022/01/27 02:24:37;;;;;;;;;;;;;;;-144.99;100.00;52656.00;4991389;28;19932;-58
2022/01/27 02:27:04;;;;;;;;;;;;;;;-144.99;100.00;52668.22;4990973;28;19933;-60
2022/01/27 02:29:31;;;;;;;;;;;;;;;-144.99;100.00;52656.00;4991675;28;19926;-58
2022/01/27 02:31:58;;;;;;;;;;;;;;;-144.99;100.00;52643.78;4991590;28;20319;-58
2022/01/27 02:34:25;;;;;;;;;;;;;;;-144.99;100.00;52664.16;4991192;28;19926;-58
2022/01/27 02:36:52;;;;;;;;;;;;;;;-144.99;100.00;52690.66;4985067;28;19926;-58
2022/01/27 02:39:20;;;;;;;;;;;;;;;-144.99;100.00;52631.53;4990799;28;19925;-58
2022/01/27 02:41:51;;;;;;;;;;;;;;;-144.99;100.00;52676.38;4999175;28;20387;-58
2022/01/27 02:44:24;;;;;;;;;;;;;;;-144.99;100.00;52674.34;4991363;28;19925;-58
2022/01/27 02:46:51;;;;;;;;;;;;;;;-144.99;100.00;52647.84;4990742;28;19937;-58
2022/01/27 02:49:17;;;;;;;;;;;;;;;-144.99;100.00;52633.59;4991771;28;19932;-59
2022/01/27 02:51:43;;;;;;;;;;;;;;;-144.99;100.00;52656.00;4991216;28;20029;-60
2022/01/27 02:54:10;;;;;;;;;;;;;;;-144.99;100.00;52672.31;4991397;28;19926;-59
2022/01/27 02:56:43;;;;;;;;;;;;;;;-144.99;100.00;52672.31;4991845;28;19926;-58
2022/01/27 02:59:09;;;;;;;;;;;;;;;-144.99;100.00;52686.59;4991550;28;20390;-58
2022/01/27 03:01:36;;;;;;;;;;;;;;;-144.99;100.00;52635.63;4991054;28;19933;-60
2022/01/27 03:04:02;;;;;;;;;;;;;;;-144.99;100.00;52672.31;4991347;28;20305;-60
2022/01/27 03:06:28;;;;;;;;;;;;;;;-144.99;100.00;52668.22;4991036;28;19926;-60
2022/01/27 03:08:55;;;;;;;;;;;;;;;-144.99;100.00;52682.50;4995712;28;20025;-59
2022/01/27 03:11:34;;;;;;;;;;;;;;;-144.99;100.00;52643.78;4998492;28;19926;-60
2022/01/27 03:14:01;;;;;;;;;;;;;;;-144.99;100.00;52692.69;4990829;28;20390;-58
2022/01/27 03:16:28;;;;;;;;;;;;;;;-144.99;100.00;52674.34;4991180;28;19926;-59
2022/01/27 03:18:54;;;;;;;;;;;;;;;-144.99;100.00;52651.94;4990982;28;19933;-59
2022/01/27 03:21:21;;;;;;;;;;;;;;;-144.99;100.00;52647.84;4995839;28;20391;-59
2022/01/27 03:23:47;;;;;;;;;;;;;;;-144.99;100.00;52643.78;4977803;28;20291;-59
2022/01/27 03:26:14;;;;;;;;;;;;;;;-144.99;100.00;52643.78;4991324;28;19926;-58
2022/01/27 03:28:40;;;;;;;;;;;;;;;-144.99;100.00;52660.09;4990700;28;19933;-59
2022/01/27 03:31:08;;;;;;;;;;;;;;;-144.99;100.00;52664.16;4990674;28;19925;-58
2022/01/27 03:33:36;;;;;;;;;;;;;;;-144.99;100.00;52668.22;4990588;28;19970;-58
2022/01/27 03:36:02;;;;;;;;;;;;;;;-144.99;100.00;52656.00;4990843;28;19926;-59
2022/01/27 03:38:28;;;;;;;;;;;;;;;-144.99;100.00;52651.94;4990771;28;19933;-59
2022/01/27 03:40:55;;;;;;;;;;;;;;;-144.99;100.00;52662.13;4990534;28;19932;-59
2022/01/27 03:43:21;;;;;;;;;;;;;;;-144.99;100.00;52704.94;4990791;28;19933;-60
2022/01/27 03:45:47;;;;;;;;;;;;;;;-144.99;100.00;52704.94;4990138;28;19926;-60
2022/01/27 03:48:15;;;;;;;;;;;;;;;-144.99;100.00;52709.00;4986831;28;19926;-59
2022/01/27 03:50:42;;;;;;;;;;;;;;;-144.99;100.00;52647.84;4996121;28;20430;-59
2022/01/27 03:53:08;;;;;;;;;;;;;;;-144.99;100.00;52660.09;4990374;28;20311;-60
2022/01/27 03:55:34;;;;;;;;;;;;;;;-144.99;100.00;52692.69;4990662;28;19926;-59
2022/01/27 03:58:01;;;;;;;;;;;;;;;-144.99;100.00;52686.59;4990925;28;20309;-59
2022/01/27 04:00:27;;;;;;;;;;;;;;;-144.99;100.00;52662.13;4990927;28;20321;-59
2022/01/27 04:03:01;;;;;;;;;;;;;;;-144.99;100.00;52668.22;4991111;28;20005;-58
2022/01/27 04:05:33;;;;;;;;;;;;;;;-144.99;100.00;52668.22;4989827;28;20360;-59
2022/01/27 04:08:00;;;;;;;;;;;;;;;-144.99;100.00;52700.84;4992888;28;20348;-60
2022/01/27 04:10:26;;;;;;;;;;;;;;;-144.99;100.00;52664.16;5001084;28;19933;-59
2022/01/27 04:12:53;;;;;;;;;;;;;;;-144.99;100.00;52660.09;4990709;28;19930;-59
2022/01/27 04:15:19;;;;;;;;;;;;;;;-144.99;100.00;52643.78;4989918;28;20375;-59
2022/01/27 04:17:45;;;;;;;;;;;;;;;-144.99;100.00;52670.28;4990765;28;20410;-60
2022/01/27 04:20:12;;;;;;;;;;;;;;;-144.99;100.00;52692.69;4990022;28;19926;-60
2022/01/27 04:22:40;;;;;;;;;;;;;;;-144.99;100.00;52656.00;4995680;28;19949;-60
2022/01/27 04:25:07;;;;;;;;;;;;;;;-144.99;100.00;52702.88;4990595;28;19932;-59
2022/01/27 04:27:36;;;;;;;;;;;;;;;-144.99;100.00;52615.25;4990771;28;20371;-60
2022/01/27 04:30:04;;;;;;;;;;;;;;;-144.99;100.00;52676.38;4990489;28;20032;-60
2022/01/27 04:32:38;;;;;;;;;;;;;;;-144.99;100.00;52668.22;4990522;28;20021;-60
2022/01/27 04:35:07;;;;;;;;;;;;;;;-144.99;100.00;52664.16;4990616;28;19981;-60
2022/01/27 04:37:39;;;;;;;;;;;;;;;-144.99;100.00;52682.50;4990699;28;19981;-59
2022/01/27 04:40:14;;;;;;;;;;;;;;;-144.99;100.00;52709.00;5004665;28;20378;-60
2022/01/27 04:42:51;;;;;;;;;;;;;;;-144.99;100.00;52656.00;4994568;28;19926;-60
2022/01/27 04:45:20;;;;;;;;;;;;;;;-144.99;100.00;52674.34;4989739;28;20384;-60
2022/01/27 04:47:51;;;;;;;;;;;;;;;-144.99;100.00;52709.00;4990232;28;19925;-60
2022/01/27 04:50:17;;;;;;;;;;;;;;;-144.99;100.00;52668.22;4990315;28;19955;-60
2022/01/27 04:52:46;;;;;;;;;;;;;;;-144.99;100.00;52682.50;4993494;28;19937;-60
2022/01/27 04:55:16;;;;;;;;;;;;;;;-144.99;100.00;52664.16;4993496;28;19932;-60
2022/01/27 04:57:44;;;;;;;;;;;;;;;-144.99;100.00;52676.38;4993912;28;19926;-60
2022/01/27 05:00:14;;;;;;;;;;;;;;;-144.99;100.00;52688.63;4994401;28;20020;-61
2022/01/27 05:02:45;;;;;;;;;;;;;;;-144.99;100.00;52668.22;4994468;28;20350;-60
2022/01/27 05:05:12;;;;;;;;;;;;;;;-144.99;100.00;52704.94;4993391;28;19930;-61
2022/01/27 05:07:39;;;;;;;;;;;;;;;-144.99;100.00;52676.38;4993405;28;20303;-60
2022/01/27 05:10:11;;;;;;;;;;;;;;;-144.99;100.00;52668.22;5006488;28;19932;-60
2022/01/27 05:12:43;;;;;;;;;;;;;;;-144.99;100.00;52668.22;4993906;28;19926;-60
2022/01/27 05:15:10;;;;;;;;;;;;;;;-144.99;100.00;52702.88;4992796;28;20021;-60
2022/01/27 05:17:40;;;;;;;;;;;;;;;-144.99;100.00;52704.94;4993297;28;19926;-60
2022/01/27 05:20:07;;;;;;;;;;;;;;;-144.99;100.00;52656.00;4992644;28;19926;-60
2022/01/27 05:22:33;;;;;;;;;;;;;;;-144.99;100.00;52656.00;4998505;28;19937;-61
2022/01/27 05:24:59;;;;;;;;;;;;;;;-144.99;100.00;52660.09;4992915;28;19925;-60
2022/01/27 05:27:26;;;;;;;;;;;;;;;-144.99;100.00;52684.53;4992978;28;19925;-60
2022/01/27 05:29:54;;;;;;;;;;;;;;;-144.99;100.00;52696.78;4992684;28;19930;-60
2022/01/27 05:32:20;;;;;;;;;;;;;;;-144.99;100.00;52627.47;4993114;28;20314;-61
2022/01/27 05:34:47;;;;;;;;;;;;;;;-144.99;100.00;52698.81;4992177;28;20531;-60
2022/01/27 05:37:13;;;;;;;;;;;;;;;-144.99;100.00;52664.16;4993445;28;20409;-61
2022/01/27 05:39:39;;;;;;;;;;;;;;;-144.99;100.00;52684.53;4994296;28;20489;-61
2022/01/27 05:42:06;;;;;;;;;;;;;;;-144.99;100.00;52676.38;4993379;28;19948;-60
2022/01/27 05:44:32;;;;;;;;;;;;;;;-144.99;100.00;52662.13;4993114;28;20391;-61
2022/01/27 05:47:00;;;;;;;;;;;;;;;-144.99;100.00;52656.00;4991090;28;19937;-60
2022/01/27 05:49:26;;;;;;;;;;;;;;;-144.99;100.00;52658.03;4992017;28;19925;-60
2022/01/27 05:51:54;;;;;;;;;;;;;;;-144.99;100.00;52660.09;4998153;28;19925;-60
2022/01/27 05:54:21;;;;;;;;;;;;;;;-144.99;100.00;52684.53;4992438;28;19926;-59
2022/01/27 05:56:47;;;;;;;;;;;;;;;-144.99;100.00;52696.78;4992354;28;19937;-61
2022/01/27 05:59:13;;;;;;;;;;;;;;;-144.99;100.00;52651.94;4992776;28;19933;-60
2022/01/27 06:01:40;;;;;;;;;;;;;;;-144.99;100.00;52656.00;4992207;28;19929;-60
2022/01/27 06:04:07;;;;;;;;;;;;;;;-144.99;100.00;52664.16;4992290;28;19926;-61
2022/01/27 06:06:34;;;;;;;;;;;;;;;-144.99;100.00;52623.38;4991929;28;19925;-60
2022/01/27 06:09:00;;;;;;;;;;;;;;;-144.99;100.00;52664.16;4999633;28;20406;-60
2022/01/27 06:11:26;;;;;;;;;;;;;;;-144.99;100.00;52639.69;4997597;28;20001;-60
2022/01/27 06:13:53;;;;;;;;;;;;;;;-144.99;100.00;52635.63;4991754;28;19926;-60
2022/01/27 06:16:19;;;;;;;;;;;;;;;-144.99;100.00;52651.94;4991966;28;20295;-60
2022/01/27 06:18:45;;;;;;;;;;;;;;;-144.99;100.00;52625.44;4992256;28;19929;-60
2022/01/27 06:21:13;;;;;;;;;;;;;;;-144.99;100.00;52696.78;4997151;28;20457;-61
2022/01/27 06:23:40;;;;;;;;;;;;;;;-144.99;100.00;52643.78;4991892;28;19953;-60
2022/01/27 06:26:06;;;;;;;;;;;;;;;-144.99;100.00;52631.53;4991895;28;20310;-65
2022/01/27 06:28:33;;;;;;;;;;;;;;;-144.99;100.00;52664.16;4992690;28;19933;-61
2022/01/27 06:30:59;;;;;;;;;;;;;;;-144.99;100.00;52664.16;4992340;28;19926;-60
2022/01/27 06:33:25;;;;;;;;;;;;;;;-144.99;100.00;52635.63;4991980;28;20391;-60
2022/01/27 06:35:52;;;;;;;;;;;;;;;-144.99;100.00;52674.34;4991848;28;19932;-61
2022/01/27 06:38:19;;;;;;;;;;;;;;;-144.99;100.00;52709.00;5002241;28;19932;-60
2022/01/27 06:40:46;;;;;;;;;;;;;;;-144.99;100.00;52668.22;5005441;28;19936;-61
2022/01/27 06:43:12;;;;;;;;;;;;;;;-144.99;100.00;52664.16;4991589;28;19933;-60
2022/01/27 06:45:39;;;;;;;;;;;;;;;-144.99;100.00;52684.53;4991205;28;19933;-61
2022/01/27 06:48:05;;;;;;;;;;;;;;;-144.99;100.00;52668.22;4991409;28;19936;-60
2022/01/27 06:50:32;;;;;;;;;;;;;;;-144.99;100.00;52684.53;4990913;28;19937;-60
2022/01/27 06:52:58;;;;;;;;;;;;;;;-144.99;100.00;52660.09;4991164;28;20302;-60
2022/01/27 06:55:26;;;;;;;;;;;;;;;-144.99;100.00;52692.69;4992184;28;19933;-60
2022/01/27 06:57:52;;;;;;;;;;;;;;;-144.99;100.00;52684.53;4991648;28;19925;-61
2022/01/27 07:00:19;;;;;;;;;;;;;;;-144.99;100.00;52656.00;4991158;28;19929;-59
2022/01/27 07:02:45;;;;;;;;;;;;;;;-144.99;100.00;52658.03;4991087;28;19934;-60
2022/01/27 07:05:14;;;;;;;;;;;;;;;-144.99;100.00;52656.00;4990397;28;20085;-60
2022/01/27 07:07:40;;;;;;;;;;;;;;;-144.99;100.00;52664.16;4990608;28;19926;-60
2022/01/27 07:10:07;;;;;;;;;;;;;;;-144.99;100.00;52674.34;5003999;28;19936;-60
2022/01/27 07:12:35;;;;;;;;;;;;;;;-144.99;100.00;52664.16;4998030;28;20406;-60
2022/01/27 07:15:01;;;;;;;;;;;;;;;-144.99;100.00;52680.47;4989910;28;19926;-60
2022/01/27 07:17:28;;;;;;;;;;;;;;;-144.99;100.00;52668.22;4991073;28;19933;-60
2022/01/27 07:19:55;;;;;;;;;;;;;;;-144.99;100.00;52676.38;4990209;28;20303;-61
2022/01/27 07:22:21;;;;;;;;;;;;;;;-144.99;100.00;52649.88;4996147;28;20254;-60
2022/01/27 07:24:47;;;;;;;;;;;;;;;-144.99;100.00;52656.00;4990792;28;20049;-60
2022/01/27 07:27:14;;;;;;;;;;;;;;;-144.99;100.00;52637.66;4991077;28;19929;-61
2022/01/27 07:29:42;;;;;;;;;;;;;;;-144.99;100.00;52700.84;4986812;28;20371;-60
2022/01/27 07:32:08;;;;;;;;;;;;;;;-144.99;100.00;52676.38;4991300;28;19926;-60
2022/01/27 07:34:35;;;;;;;;;;;;;;;-144.99;100.00;52651.94;4990019;28;20304;-60
2022/01/27 07:37:02;;;;;;;;;;;;;;;-144.99;100.00;52658.03;4990940;28;19937;-60
2022/01/27 07:39:29;;;;;;;;;;;;;;;-144.99;100.00;52684.53;4990679;28;19926;-60
2022/01/27 07:41:57;;;;;;;;;;;;;;;-144.99;100.00;52662.13;4990263;28;19937;-61
2022/01/27 07:44:23;;;;;;;;;;;;;;;-144.99;100.00;52680.47;4990852;28;20001;-60
2022/01/27 07:46:51;;;;;;;;;;;;;;;-144.99;100.00;52653.97;4989606;28;19937;-60
2022/01/27 07:49:17;;;;;;;;;;;;;;;-144.99;100.00;52696.78;4999052;28;19926;-61
2022/01/27 07:51:43;;;;;;;;;;;;;;;-144.99;100.00;52668.22;4994995;28;19932;-61
2022/01/27 07:54:10;;;;;;;;;;;;;;;-144.99;100.00;52684.53;4990199;28;19925;-61
2022/01/27 07:56:37;;;;;;;;;;;;;;;-144.99;100.00;52651.94;4990304;28;19972;-60
2022/01/27 07:59:03;;;;;;;;;;;;;;;-144.99;100.00;52670.28;4990541;28;19933;-61
2022/01/27 08:01:30;;;;;;;;;;;;;;;-144.99;100.00;52680.47;4989976;28;19926;-61
2022/01/27 08:03:57;;;;;;;;;;;;;;;-144.99;100.00;52684.53;4990430;28;19932;-61
2022/01/27 08:06:24;;;;;;;;;;;;;;;-144.99;100.00;52631.53;4990342;28;19930;-59
2022/01/27 08:08:50;;;;;;;;;;;;;;;-144.99;100.00;52664.16;5015820;22;19929;-60
2022/01/27 08:11:17;;;;;;;;;;;;;;;-144.99;100.00;52651.94;5028505;28;20306;-59
2022/01/27 08:13:43;;;;;;;;;;;;;;;-144.99;100.00;52668.22;5027885;28;20043;-60
2022/01/27 08:16:10;;;;;;;;;;;;;;;-144.99;100.00;52672.31;5028664;28;19925;-59
2022/01/27 08:18:36;;;;;;;;;;;;;;;-144.99;100.00;52660.09;5025970;28;19925;-60
2022/01/27 08:21:04;;;;;;;;;;;;;;;-144.99;100.00;52696.78;5012953;28;19937;-59
2022/01/27 08:23:31;;;;;;;;;;;;;;;-144.99;100.00;52686.59;5008031;28;20522;-59
2022/01/27 08:26:04;;;;;;;;;;;;;;;-144.99;100.00;52643.78;5009856;28;19948;-63
2022/01/27 08:28:35;;;;;;;;;;;;;;;-144.99;100.00;52684.53;5011953;28;19930;-59
2022/01/27 08:31:03;;;;;;;;;;;;;;;-144.99;100.00;52684.53;5011915;28;20024;-59
2022/01/27 08:33:30;;;;;;;;;;;;;;;-144.99;100.00;52670.28;5011905;28;19925;-59
2022/01/27 08:35:57;;;;;;;;;;;;;;;-144.99;100.00;52627.47;5012083;28;20025;-61
2022/01/27 08:38:24;;;;;;;;;;;;;;;-144.99;100.00;52704.94;5025578;28;20291;-59
2022/01/27 08:40:51;;;;;;;;;;;;;;;-144.99;100.00;52651.94;5024406;28;19937;-59
2022/01/27 08:43:17;;;;;;;;;;;;;;;-144.99;100.00;52668.22;5012119;28;19925;-60
2022/01/27 08:45:45;;;;;;;;;;;;;;;-144.99;100.00;52653.97;5011706;28;20116;-59
2022/01/27 08:48:15;;;;;;;;;;;;;;;-144.99;100.00;52647.84;5012140;28;20020;-58
2022/01/27 08:50:48;;;;;;;;;;;;;;;-144.99;100.00;52668.22;5011253;28;19936;-61
2022/01/27 08:53:14;;;;;;;;;;;;;;;-144.99;100.00;52664.16;5011510;28;19937;-63
2022/01/27 08:55:44;;;;;;;;;;;;;;;-144.99;100.00;52684.53;5012358;28;19930;-62
2022/01/27 08:58:10;;;;;;;;;;;;;;;-144.99;100.00;52643.78;5012224;28;19948;-58
2022/01/27 09:00:37;;;;;;;;;;;;;;;-144.99;100.00;52651.94;5011462;28;20290;-58
2022/01/27 09:03:03;;;;;;;;;;;;;;;-144.99;100.00;52635.63;5011825;28;20321;-59
2022/01/27 09:05:30;;;;;;;;;;;;;;;-144.99;100.00;52660.09;5011112;28;19936;-61
2022/01/27 09:07:57;;;;;;;;;;;;;;;-144.99;100.00;52668.22;5013760;28;19936;-61
2022/01/27 09:10:23;;;;;;;;;;;;;;;-144.99;100.00;52627.47;5025187;28;20012;-60
2022/01/27 09:12:51;;;;;;;;;;;;;;;-144.99;100.00;52647.84;5029420;28;19925;-61
2022/01/27 09:15:17;;;;;;;;;;;;;;;-144.99;100.00;52631.53;5011204;28;19995;-58
2022/01/27 09:17:44;;;;;;;;;;;;;;;-144.99;100.00;52651.94;5012064;28;19937;-61
2022/01/27 09:20:11;;;;;;;;;;;;;;;-144.99;100.00;52678.44;5015886;28;19925;-61
2022/01/27 09:22:37;;;;;;;;;;;;;;;-144.99;100.00;52664.16;5015889;28;20375;-59
2022/01/27 09:25:10;;;;;;;;;;;;;;;-144.99;100.00;52656.00;5012471;28;20343;-60
2022/01/27 09:27:37;;;;;;;;;;;;;;;-144.99;100.00;52627.47;5011523;28;20366;-60
2022/01/27 09:30:05;;;;;;;;;;;;;;;-144.99;100.00;52653.97;5010927;28;19929;-61
2022/01/27 09:32:32;;;;;;;;;;;;;;;-144.99;100.00;52635.63;5010801;28;20375;-59
2022/01/27 09:34:58;;;;;;;;;;;;;;;-144.99;100.00;52672.31;5010640;28;19952;-60
2022/01/27 09:37:24;;;;;;;;;;;;;;;-144.99;100.00;52639.69;5023704;28;20039;-59
2022/01/27 09:39:51;;;;;;;;;;;;;;;-144.99;100.00;52662.13;5030729;28;19925;-59
2022/01/27 09:42:17;;;;;;;;;;;;;;;-144.99;100.00;52670.28;5030643;28;20333;-58
2022/01/27 09:44:51;;;;;;;;;;;;;;;-144.99;100.00;52660.09;5030033;28;20354;-61
2022/01/27 09:47:20;;;;;;;;;;;;;;;-144.99;100.00;52658.03;5024249;28;19930;-61
2022/01/27 09:49:52;;;;;;;;;;;;;;;-144.99;100.00;52668.22;5021912;28;19926;-60
2022/01/27 09:52:19;;;;;;;;;;;;;;;-144.99;100.00;52660.09;5015314;28;20449;-59
2022/01/27 09:54:46;;;;;;;;;;;;;;;-144.99;100.00;52660.09;5010782;28;19936;-59
2022/01/27 09:57:14;;;;;;;;;;;;;;;-144.99;100.00;52666.19;5010329;28;19936;-61
2022/01/27 09:59:42;;;;;;;;;;;;;;;-144.99;100.00;52656.00;5010773;28;20009;-60
2022/01/27 10:02:09;;;;;;;;;;;;;;;-144.99;100.00;52688.63;5010537;28;19926;-61
2022/01/27 10:04:44;;;;;;;;;;;;;;;-144.99;100.00;52647.84;5010332;28;19933;-60
2022/01/27 10:07:11;;;;;;;;;;;;;;;-144.99;100.00;52643.78;5009870;28;20382;-61
2022/01/27 10:09:38;;;;;;;;;;;;;;;-144.99;100.00;52619.31;5022765;28;19933;-60
2022/01/27 10:12:05;;;;;;;;;;;;;;;-144.99;100.00;52668.22;5010593;28;20402;-60
2022/01/27 10:14:35;;;;;;;;;;;;;;;-144.99;100.00;52623.38;5010488;28;19975;-59
2022/01/27 10:17:04;;;;;;;;;;;;;;;-144.99;100.00;52629.50;5010779;28;20051;-60
2022/01/27 10:19:30;;;;;;;;;;;;;;;-144.99;100.00;52633.59;5010187;28;20176;-61
2022/01/27 10:22:02;;;;;;;;;;;;;;;-144.99;100.00;52651.94;5019542;28;20160;-60
2022/01/27 10:24:30;;;;;;;;;;;;;;;-144.99;100.00;52662.13;5009858;28;19925;-61
2022/01/27 10:27:20;;;;;;;;;;;;;;;-144.99;100.00;52631.53;5010269;28;20405;-61
2022/01/27 10:30:35;;;;;;;;;;;;;;;-144.99;100.00;52668.22;5007051;28;19932;-59
2022/01/27 10:32:52;;;;;;;;;;;;;;;-144.99;100.00;52656.00;5009677;28;19948;-59
2022/01/27 10:35:21;;;;;;;;;;;;;;;-144.99;100.00;52656.00;5010309;28;20043;-60
2022/01/27 10:37:56;;;;;;;;;;;;;;;-144.99;100.00;52643.78;5018806;28;19937;-59
2022/01/27 10:40:23;;;;;;;;;;;;;;;-144.99;100.00;52619.31;5023999;28;19936;-60
2022/01/27 10:43:17;;;;;;;;;;;;;;;-144.99;100.00;52633.59;5011669;28;19926;-60
2022/01/27 10:46:00;;;;;;;;;;;;;;;-144.99;100.00;52598.94;4984243;28;19933;-61
2022/01/27 10:48:30;;;;;;;;;;;;;;;-144.99;100.00;52623.38;5009003;28;19925;-61
2022/01/27 10:51:02;;;;;;;;;;;;;;;-144.99;100.00;52603.00;5008608;28;19941;-61
2022/01/27 10:53:48;;;;;;;;;;;;;;;-144.99;100.00;52590.78;5009535;28;20365;-60
2022/01/27 10:56:16;;;;;;;;;;;;;;;-144.99;100.00;52623.38;5009699;28;19987;-62
2022/01/27 10:58:43;;;;;;;;;;;;;;;-144.99;100.00;52598.94;5010151;28;19936;-65
2022/01/27 11:01:09;;;;;;;;;;;;;;;-144.99;100.00;52621.34;5009311;28;20326;-61
2022/01/27 11:03:36;;;;;;;156.55;68.05;;;;;;;-144.99;100.00;52611.16;5008986;28;19932;-61
2022/01/27 11:06:08;;;;;;;;;;;;;;;-144.99;100.00;52621.34;5009111;28;20399;-62
2022/01/27 11:08:36;;;;;;;;;;;;;;;-144.99;100.00;52615.25;5014390;28;19926;-62
2022/01/27 11:11:04;;;;;;;;;;;;;;;-144.99;100.00;52635.63;5025204;28;24523;-60
2022/01/27 11:13:33;;;;;;;;;;;;;;;-144.99;100.00;52603.00;5017275;28;19988;-60
2022/01/27 11:16:00;;;;;;;;;;;;;;;-144.99;100.00;52619.31;5008577;28;19921;-60
2022/01/27 11:18:28;;;;;;;;;;;;;;;-144.99;100.00;52643.78;5009339;28;19944;-61
2022/01/27 11:20:59;;;;;;;;;;;;;;;-144.99;100.00;52613.19;5018852;28;20008;-60
2022/01/27 11:26:16;;;;;;;;;;;;;;;-144.99;100.00;52574.47;5009483;28;20006;-62
2022/01/27 11:28:44;;;;;;;;;;;;;;;-144.99;100.00;52607.09;5009414;28;20025;-61
2022/01/27 11:31:17;;;;;;;;;;;;;;;-144.99;100.00;52605.03;5008876;28;19927;-61
2022/01/27 11:33:44;;;;;;;;;;;;;;;-144.99;100.00;52529.63;5009042;28;19932;-60
2022/01/27 11:36:12;;;;;;;;;;;;;;;-144.99;100.00;52574.47;5007813;28;24455;-60
2022/01/27 11:38:39;;;;;;;;;;;;;;;-144.99;99.57;52560.19;5009785;28;19948;-62
2022/01/27 11:41:05;;;;;;;152.25;71.70;;;;;;;-144.99;98.21;52476.63;5007887;28;24483;-63
2022/01/27 11:43:34;;;;;;;140.70;67.93;;;;;;;-144.99;94.21;52590.78;5008819;28;20263;-61
2022/01/27 11:46:13;;;;;;;135.85;66.72;;;;;;;-144.99;93.11;52505.16;5008147;28;20210;-61
2022/01/27 11:48:40;;;;;;;129.30;65.53;;;;;;;-144.99;90.11;52439.94;5020779;28;20224;-61
2022/01/27 11:51:12;;;;;;;;;;;;;;;-144.99;86.00;52521.47;5008431;28;20217;-61
2022/01/27 11:53:40;;;;;;;;;;;;;;;-144.99;82.08;52366.56;5008745;28;20007;-61
2022/01/27 11:56:07;;;;;;;;;;;;;;;-144.99;78.75;52399.19;5009130;28;20213;-62
2022/01/27 11:58:45;;;;;;;;;;;;;;;-144.99;73.73;52499.06;5009084;28;19944;-62
2022/01/27 12:01:14;;;;;;;;;;;;;;;-144.99;75.42;52472.56;5012263;28;19921;-62
2022/01/27 12:03:41;;;;;;;;;;;;;;;-144.99;73.69;52382.88;5012373;28;20001;-63
2022/01/27 12:06:15;;;;;;;;;;;;;;;-144.99;72.12;52419.56;5013118;28;19926;-63
2022/01/27 12:08:42;;;;;;;150.45;71.80;;;;;;;-144.99;67.85;52531.66;5016339;28;25467;-63
2022/01/27 12:11:11;;;;;;;132.10;67.43;;;;;;;-144.99;68.91;52562.25;5014412;28;20208;-60
2022/01/27 12:14:01;;;;;;;125.03;65.27;;;;;;;-144.99;71.60;52545.94;5012313;28;21285;-61
2022/01/27 12:16:53;;;;;;;108.50;61.87;;;;;;;-144.99;78.27;52590.78;5012315;28;20634;-61
2022/01/27 12:19:20;;;;;;;100.05;58.90;;;;;;;-144.99;82.28;52594.84;5012435;28;20669;-60
2022/01/27 12:21:55;;;;;;;;;;;;;;;-144.99;86.26;52621.34;5022353;28;20216;-61
2022/01/27 12:24:24;;;;;;;;;;;;;;;-144.99;87.05;52598.94;5012634;28;19921;-60
2022/01/27 12:26:52;;;;;;;;;;;;;;;-144.99;86.82;52550.00;5012803;28;20440;-62
2022/01/27 12:29:36;;;;;;;;;;;;;;;-144.99;81.23;52570.38;5013181;28;19925;-62
2022/01/27 12:32:05;;;;;;;;;;;;;;;-144.99;78.32;52588.75;5013035;28;19975;-62
2022/01/27 12:34:32;;;;;;;;;;;;;;;-144.99;80.47;52480.72;5012221;28;19921;-61
2022/01/27 12:37:04;;;;;;;;;;;;;;;-144.99;76.55;52521.47;5014383;28;19933;-62
2022/01/27 12:39:31;;;;;;;;;;;;;;;-144.99;73.69;52562.25;5025932;28;19922;-62
2022/01/27 12:41:59;;;;;;;;;;;;;;;-144.99;70.39;52480.72;5020061;28;19961;-60
2022/01/27 12:44:26;;;;;;;;;;;;;;;-144.99;69.78;52505.16;5012415;28;20378;-61
2022/01/27 12:47:13;;;;;;;;;;;;;;;-144.99;71.17;52525.56;5011528;28;19928;-62
2022/01/27 12:49:42;;;;;;;;;;;;;;;-144.99;71.63;52541.84;5011948;28;19928;-62
2022/01/27 12:52:11;;;;;;;;;;;;;;;-144.99;72.55;52452.16;5012410;28;20016;-62